createdAt,value
2023-05-16T00:01:12.766Z,100871.06
2023-05-16T00:03:42.522Z,100865.41
2023-05-16T00:06:12.262Z,100862.00
2023-05-16T00:08:41.032Z,100861.34
2023-05-16T00:11:09.029Z,100860.38
2023-05-16T00:13:37.602Z,100862.00
2023-05-16T00:16:06.860Z,100869.81
2023-05-16T00:18:37.577Z,100859.78
2023-05-16T00:21:06.897Z,100868.03
2023-05-16T00:23:36.273Z,100875.31
2023-05-16T00:26:04.366Z,100868.63
2023-05-16T00:28:32.501Z,100872.22
2023-05-16T00:31:00.475Z,100875.25
2023-05-16T00:33:28.551Z,100874.22
2023-05-16T00:35:56.526Z,100877.66
2023-05-16T00:38:26.148Z,100876.84
2023-05-16T00:40:55.483Z,100873.41
2023-05-16T00:43:23.481Z,100884.94
2023-05-16T00:45:51.585Z,100877.69
2023-05-16T00:48:20.474Z,100878.56
2023-05-16T00:50:49.486Z,100875.94
2023-05-16T00:53:17.812Z,100878.56
2023-05-16T00:55:46.294Z,100885.47
2023-05-16T00:58:16.417Z,100890.72
2023-05-16T01:00:48.716Z,100877.34
2023-05-16T01:03:17.299Z,100872.78
2023-05-16T01:05:45.406Z,100880.00
2023-05-16T01:08:13.409Z,100882.84
2023-05-16T01:10:47.754Z,100888.94
2023-05-16T01:13:25.557Z,100878.16
2023-05-16T01:16:02.570Z,100875.41
2023-05-16T01:18:37.736Z,100882.53
2023-05-16T01:21:13.494Z,100892.94
2023-05-16T01:23:52.477Z,100892.03
2023-05-16T01:26:23.848Z,100894.88
2023-05-16T01:28:53.325Z,100881.75
2023-05-16T01:31:22.088Z,100893.38
2023-05-16T01:33:50.987Z,100883.50
2023-05-16T01:36:25.968Z,100893.56
2023-05-16T01:39:08.905Z,100891.81
2023-05-16T01:41:49.369Z,100895.31
2023-05-16T01:44:22.957Z,100905.16
2023-05-16T01:46:57.777Z,100899.00
2023-05-16T01:49:31.378Z,100901.66
2023-05-16T01:52:03.054Z,100903.50
2023-05-16T01:54:34.215Z,100907.13
2023-05-16T01:57:06.040Z,100909.00
2023-05-16T01:59:34.536Z,100912.41
2023-05-16T02:02:02.572Z,100912.31
2023-05-16T02:04:30.624Z,100915.81
2023-05-16T02:07:00.409Z,100906.19
2023-05-16T02:09:28.559Z,100914.91
2023-05-16T02:11:56.606Z,100907.69
2023-05-16T02:14:26.078Z,100912.31
2023-05-16T02:16:54.900Z,100913.47
2023-05-16T02:19:23.029Z,100921.41
2023-05-16T02:21:51.692Z,100894.16
2023-05-16T02:24:19.769Z,100902.09
2023-05-16T02:26:47.855Z,100909.25
2023-05-16T02:29:16.530Z,100908.34
2023-05-16T02:31:46.422Z,100910.09
2023-05-16T02:34:14.663Z,100894.34
2023-05-16T02:36:42.914Z,100903.22
2023-05-16T02:39:11.302Z,100909.44
2023-05-16T02:41:39.432Z,100912.03
2023-05-16T02:44:07.502Z,100918.41
2023-05-16T02:46:36.858Z,100914.81
2023-05-16T02:49:06.478Z,100916.59
2023-05-16T02:51:34.553Z,100918.25
2023-05-16T02:54:02.778Z,100922.00
2023-05-16T02:56:30.786Z,100915.78
2023-05-16T02:58:58.809Z,100924.69
2023-05-16T03:01:26.826Z,100926.63
2023-05-16T03:03:54.956Z,100927.56
2023-05-16T03:06:24.576Z,100936.44
2023-05-16T03:08:52.590Z,100932.94
2023-05-16T03:11:21.741Z,100933.03
2023-05-16T03:13:50.143Z,100942.84
2023-05-16T03:16:18.297Z,100942.09
2023-05-16T03:18:46.453Z,100943.81
2023-05-16T03:21:15.024Z,100941.97
2023-05-16T03:23:44.397Z,100918.28
2023-05-16T03:26:12.395Z,100954.44
2023-05-16T03:28:40.459Z,100952.78
2023-05-16T03:31:08.654Z,100948.50
2023-05-16T03:33:36.626Z,100956.50
2023-05-16T03:36:05.271Z,100953.97
2023-05-16T03:38:33.530Z,100967.22
2023-05-16T03:41:03.055Z,100962.03
2023-05-16T03:43:31.052Z,100962.78
2023-05-16T03:45:59.327Z,100962.78
2023-05-16T03:48:27.292Z,100970.78
2023-05-16T03:50:55.660Z,100969.88
2023-05-16T03:53:23.728Z,100968.06
2023-05-16T03:55:51.868Z,100965.56
2023-05-16T03:58:21.211Z,100973.34
2023-05-16T04:00:49.203Z,100978.72
2023-05-16T04:03:17.192Z,100981.19
2023-05-16T04:05:45.303Z,100976.09
2023-05-16T04:08:13.318Z,100986.19
2023-05-16T04:10:41.281Z,100974.50
2023-05-16T04:13:09.953Z,100974.53
2023-05-16T04:15:39.389Z,100984.38
2023-05-16T04:18:07.480Z,100985.94
2023-05-16T04:20:36.627Z,100986.97
2023-05-16T04:23:04.656Z,100987.78
2023-05-16T04:25:32.801Z,100989.69
2023-05-16T04:28:00.877Z,100996.00
2023-05-16T04:30:28.918Z,101001.19
2023-05-16T04:32:59.503Z,100995.78
2023-05-16T04:35:29.529Z,101001.19
2023-05-16T04:37:57.731Z,101006.56
2023-05-16T04:40:26.339Z,101003.91
2023-05-16T04:42:55.079Z,101004.88
2023-05-16T04:45:23.243Z,101011.94
2023-05-16T04:47:51.565Z,101011.03
2023-05-16T04:50:21.207Z,101011.16
2023-05-16T04:52:49.184Z,101015.75
2023-05-16T04:55:17.435Z,101024.59
2023-05-16T04:57:45.476Z,101024.78
2023-05-16T05:00:14.880Z,101027.47
2023-05-16T05:02:43.736Z,101026.69
2023-05-16T05:05:12.477Z,101030.22
2023-05-16T05:07:42.841Z,101032.13
2023-05-16T05:10:12.154Z,101040.22
2023-05-16T05:12:40.155Z,101033.13
2023-05-16T05:15:08.822Z,101043.63
2023-05-16T05:17:37.835Z,101048.19
2023-05-16T05:20:08.569Z,101053.38
2023-05-16T05:22:36.637Z,101047.25
2023-05-16T05:25:07.251Z,101048.94
2023-05-16T05:27:35.208Z,101018.25
2023-05-16T05:30:03.444Z,101052.06
2023-05-16T05:32:31.637Z,101054.69
2023-05-16T05:34:59.640Z,101053.13
2023-05-16T05:37:28.114Z,101060.00
2023-05-16T05:39:56.055Z,101060.75
2023-05-16T05:42:25.457Z,101051.69
2023-05-16T05:44:53.513Z,101064.66
2023-05-16T05:47:21.747Z,101071.63
2023-05-16T05:49:49.880Z,101062.19
2023-05-16T05:52:17.859Z,101064.69
2023-05-16T05:54:46.020Z,101059.69
2023-05-16T05:57:14.011Z,101074.06
2023-05-16T05:59:43.289Z,101072.22
2023-05-16T06:02:11.566Z,101067.94
2023-05-16T06:04:39.575Z,101071.47
2023-05-16T06:07:07.526Z,101071.31
2023-05-16T06:09:35.856Z,101071.06
2023-05-16T06:12:04.528Z,101086.03
2023-05-16T06:14:32.484Z,101083.16
2023-05-16T06:17:01.997Z,101081.47
2023-05-16T06:19:29.999Z,101082.09
2023-05-16T06:21:57.964Z,101089.19
2023-05-16T06:24:26.110Z,101099.97
2023-05-16T06:26:54.239Z,101084.50
2023-05-16T06:29:22.244Z,101094.31
2023-05-16T06:31:50.231Z,101092.25
2023-05-16T06:34:20.617Z,101097.00
2023-05-16T06:36:48.564Z,101080.59
2023-05-16T06:39:16.554Z,101091.06
2023-05-16T06:41:44.524Z,101086.78
2023-05-16T06:44:12.668Z,101094.16
2023-05-16T06:46:40.790Z,101107.38
2023-05-16T06:49:08.890Z,101101.34
2023-05-16T06:51:38.379Z,101111.25
2023-05-16T06:54:06.469Z,101107.38
2023-05-16T06:56:34.503Z,101120.81
2023-05-16T06:59:02.529Z,101119.50
2023-05-16T07:01:30.689Z,101116.75
2023-05-16T07:03:59.102Z,101124.78
2023-05-16T07:06:27.272Z,101128.50
2023-05-16T07:08:56.643Z,101126.59
2023-05-16T07:11:24.865Z,101134.78
2023-05-16T07:13:52.939Z,101128.53
2023-05-16T07:16:21.083Z,101134.72
2023-05-16T07:18:49.246Z,101141.91
2023-05-16T07:21:17.470Z,101131.94
2023-05-16T07:23:45.599Z,101133.19
2023-05-16T07:26:15.018Z,101137.28
2023-05-16T07:28:43.045Z,101141.00
2023-05-16T07:31:11.225Z,101137.06
2023-05-16T07:33:39.242Z,101146.84
2023-05-16T07:36:16.881Z,101140.72
2023-05-16T07:38:46.018Z,101148.75
2023-05-16T07:41:15.339Z,101149.50
2023-05-16T07:43:43.445Z,101141.50
2023-05-16T07:46:12.196Z,101146.34
2023-05-16T07:48:40.380Z,101145.09
2023-05-16T07:51:08.431Z,101140.25
2023-05-16T07:53:36.571Z,101134.69
2023-05-16T07:56:05.549Z,101129.09
2023-05-16T07:58:35.289Z,101144.78
2023-05-16T08:01:03.411Z,101137.84
2023-05-16T08:03:31.705Z,101149.75
2023-05-16T08:05:59.962Z,101148.22
2023-05-16T08:08:28.036Z,101148.00
2023-05-16T08:10:56.025Z,101144.88
2023-05-16T08:13:24.068Z,101138.78
2023-05-16T08:15:53.599Z,101144.50
2023-05-16T08:18:22.681Z,101135.22
2023-05-16T08:20:51.281Z,101151.47
2023-05-16T08:23:20.050Z,101148.88
2023-05-16T08:25:48.428Z,101151.69
2023-05-16T08:28:16.710Z,101158.66
2023-05-16T08:30:47.193Z,101156.19
2023-05-16T08:33:17.524Z,101154.22
2023-05-16T08:35:46.279Z,101161.75
2023-05-16T08:38:14.334Z,101139.84
2023-05-16T08:40:44.120Z,101138.78
2023-05-16T08:43:12.905Z,101138.84
2023-05-16T08:45:41.891Z,101147.81
2023-05-16T08:48:11.690Z,101159.28
2023-05-16T08:50:42.879Z,101145.81
2023-05-16T08:53:13.241Z,101135.19
2023-05-16T08:55:42.996Z,101133.00
2023-05-16T08:58:12.079Z,101140.47
2023-05-16T09:00:41.366Z,101149.41
2023-05-16T09:03:09.512Z,101157.13
2023-05-16T09:05:37.764Z,101160.59
2023-05-16T09:08:07.337Z,101161.25
2023-05-16T09:10:35.434Z,101168.66
2023-05-16T09:13:04.385Z,101156.13
2023-05-16T09:15:33.669Z,101161.56
2023-05-16T09:18:03.075Z,101160.19
2023-05-16T09:20:31.535Z,101151.88
2023-05-16T09:23:01.338Z,101169.53
2023-05-16T09:25:32.455Z,101158.81
2023-05-16T09:28:03.098Z,101148.13
2023-05-16T09:30:33.786Z,101159.16
2023-05-16T09:33:02.263Z,101155.28
2023-05-16T09:35:44.253Z,101160.19
2023-05-16T09:38:17.318Z,101165.38
2023-05-16T09:40:47.359Z,101156.50
2023-05-16T09:43:18.192Z,101161.06
2023-05-16T09:45:49.059Z,101146.84
2023-05-16T09:48:18.515Z,101163.66
2023-05-16T09:50:52.903Z,101155.22
2023-05-16T09:53:28.593Z,101164.88
2023-05-16T09:56:06.795Z,101162.59
2023-05-16T09:58:36.366Z,101168.16
2023-05-16T10:01:05.200Z,101183.44
2023-05-16T10:03:35.975Z,101174.06
2023-05-16T10:06:05.979Z,101159.28
2023-05-16T10:08:36.633Z,101167.97
2023-05-16T10:11:07.478Z,101163.84
2023-05-16T10:13:36.881Z,101172.00
2023-05-16T10:16:09.139Z,101182.22
2023-05-16T10:18:39.428Z,101162.09
2023-05-16T10:21:12.059Z,101175.50
2023-05-16T10:23:43.630Z,101158.75
2023-05-16T10:26:14.862Z,101156.44
2023-05-16T10:28:43.790Z,101161.38
2023-05-16T10:31:12.433Z,101151.13
2023-05-16T10:33:41.376Z,101149.78
2023-05-16T10:36:10.913Z,101141.44
2023-05-16T10:38:40.054Z,101151.66
2023-05-16T10:41:08.729Z,101152.91
2023-05-16T10:43:38.363Z,101166.31
2023-05-16T10:46:09.737Z,101154.34
2023-05-16T10:48:39.734Z,101164.53
2023-05-16T10:51:35.316Z,101158.31
2023-05-16T10:54:07.719Z,101165.38
2023-05-16T10:56:36.473Z,101160.34
2023-05-16T10:59:05.978Z,101168.25
2023-05-16T11:01:35.756Z,101150.66
2023-05-16T11:04:09.117Z,101178.94
2023-05-16T11:06:46.044Z,101180.34
2023-05-16T11:09:28.300Z,101184.97
2023-05-16T11:11:59.590Z,101180.88
2023-05-16T11:14:32.199Z,101172.66
2023-05-16T11:17:07.677Z,101183.28
2023-05-16T11:19:40.964Z,101171.69
2023-05-16T11:22:28.087Z,101162.53
2023-05-16T11:24:58.843Z,101165.59
2023-05-16T11:27:29.248Z,101181.81
2023-05-16T11:30:03.693Z,101183.19
2023-05-16T11:32:33.006Z,101202.56
2023-05-16T11:35:01.331Z,101180.31
2023-05-16T11:37:29.677Z,101177.78
2023-05-16T11:40:01.213Z,101189.84
2023-05-16T11:42:32.052Z,101169.00
2023-05-16T11:45:07.482Z,101178.66
2023-05-16T11:47:37.530Z,101194.84
2023-05-16T11:50:07.771Z,101193.91
2023-05-16T11:52:35.924Z,101179.50
2023-05-16T11:55:06.338Z,101195.22
2023-05-16T11:57:34.976Z,101197.53
2023-05-16T12:00:08.163Z,101216.06
2023-05-16T12:02:36.342Z,101213.66
2023-05-16T12:05:09.927Z,101206.91
2023-05-16T12:07:38.441Z,101206.59
2023-05-16T12:10:07.886Z,101240.72
2023-05-16T12:12:36.399Z,101220.28
2023-05-16T12:15:07.612Z,101233.97
2023-05-16T12:17:36.235Z,101220.94
2023-05-16T12:20:06.748Z,101241.19
2023-05-16T12:22:35.235Z,101216.88
2023-05-16T12:25:25.193Z,101221.31
2023-05-16T12:27:54.609Z,101218.91
2023-05-16T12:30:28.670Z,101222.31
2023-05-16T12:32:58.465Z,101226.69
2023-05-16T12:35:27.192Z,101238.69
2023-05-16T12:37:57.257Z,101241.03
2023-05-16T12:40:25.456Z,101234.63
2023-05-16T12:42:54.902Z,101240.75
2023-05-16T12:45:23.598Z,101256.03
2023-05-16T12:47:53.020Z,101270.16
2023-05-16T12:50:22.180Z,101296.28
2023-05-16T12:52:51.691Z,101302.16
2023-05-16T12:55:21.231Z,101288.63
2023-05-16T12:57:51.011Z,101270.59
2023-05-16T13:00:20.737Z,101269.84
2023-05-16T13:02:49.646Z,101257.19
2023-05-16T13:05:20.669Z,101253.81
2023-05-16T13:07:48.973Z,101250.09
2023-05-16T13:10:17.026Z,101252.72
2023-05-16T13:12:45.398Z,101248.56
2023-05-16T13:15:13.808Z,101246.19
2023-05-16T13:17:43.972Z,101263.53
2023-05-16T13:20:15.090Z,101264.44
2023-05-16T13:22:46.323Z,101265.53
2023-05-16T13:25:14.439Z,101273.00
2023-05-16T13:27:42.567Z,101271.94
2023-05-16T13:30:11.755Z,101280.03
2023-05-16T13:32:40.149Z,101273.06
2023-05-16T13:35:09.671Z,101273.19
2023-05-16T13:37:38.320Z,101263.53
2023-05-16T13:40:10.409Z,101250.84
2023-05-16T13:42:39.134Z,101251.34
2023-05-16T13:45:08.071Z,101255.69
2023-05-16T13:47:36.800Z,101247.66
2023-05-16T13:50:09.166Z,101246.22
2023-05-16T13:52:38.445Z,101262.44
2023-05-16T13:55:09.579Z,101260.22
2023-05-16T13:57:37.862Z,101250.63
2023-05-16T14:00:35.337Z,101247.38
2023-05-16T14:03:00.598Z,101240.88
2023-05-16T14:05:28.864Z,101249.25
2023-05-16T14:07:56.991Z,101255.22
2023-05-16T14:10:26.888Z,101263.84
2023-05-16T14:12:55.133Z,101254.59
2023-05-16T14:15:23.167Z,101273.97
2023-05-16T14:17:51.480Z,101275.31
2023-05-16T14:20:19.667Z,101276.13
2023-05-16T14:22:47.682Z,101318.50
2023-05-16T14:25:15.944Z,101301.06
2023-05-16T14:27:45.372Z,101316.19
2023-05-16T14:30:14.411Z,101320.41
2023-05-16T14:32:42.578Z,101307.81
2023-05-16T14:35:11.331Z,101291.56
2023-05-16T14:37:39.382Z,101293.41
2023-05-16T14:40:09.252Z,101288.19
2023-05-16T14:42:37.461Z,101293.84
2023-05-16T14:45:07.915Z,101305.03
2023-05-16T14:47:36.367Z,101291.47
2023-05-16T14:50:05.770Z,101285.47
2023-05-16T14:52:33.858Z,101284.50
2023-05-16T14:55:02.095Z,101276.84
2023-05-16T14:57:30.207Z,101266.69
2023-05-16T14:59:58.499Z,101264.34
2023-05-16T15:02:28.030Z,101285.81
2023-05-16T15:04:56.657Z,101283.22
2023-05-16T15:07:24.751Z,101277.88
2023-05-16T15:09:52.831Z,101284.09
2023-05-16T15:12:21.748Z,101286.63
2023-05-16T15:14:49.864Z,101294.47
2023-05-16T15:17:17.869Z,101289.84
2023-05-16T15:19:47.829Z,101313.16
2023-05-16T15:22:16.234Z,101303.13
2023-05-16T15:24:44.486Z,101296.72
2023-05-16T15:27:12.552Z,101296.91
2023-05-16T15:29:40.589Z,101305.22
2023-05-16T15:32:09.245Z,101316.31
2023-05-16T15:34:37.310Z,101310.84
2023-05-16T15:37:06.736Z,101307.75
2023-05-16T15:39:34.907Z,101323.03
2023-05-16T15:42:10.202Z,101334.91
2023-05-16T15:44:39.525Z,101341.16
2023-05-16T15:47:08.387Z,101327.00
2023-05-16T15:49:36.492Z,101324.25
2023-05-16T15:52:06.564Z,101327.09
2023-05-16T15:54:34.743Z,101318.56
2023-05-16T15:57:02.798Z,101321.66
2023-05-16T15:59:30.927Z,101336.38
2023-05-16T16:01:58.946Z,101327.38
2023-05-16T16:04:27.019Z,101316.78
2023-05-16T16:06:55.074Z,101321.63
2023-05-16T16:09:24.458Z,101319.66
2023-05-16T16:11:56.173Z,101319.50
2023-05-16T16:14:25.332Z,101316.41
2023-05-16T16:16:53.430Z,101305.75
2023-05-16T16:19:21.666Z,101310.75
2023-05-16T16:21:49.795Z,101300.47
2023-05-16T16:24:17.767Z,101316.25
2023-05-16T16:26:47.307Z,101311.88
2023-05-16T16:29:15.418Z,101316.53
2023-05-16T16:31:43.518Z,101308.25
2023-05-16T16:34:11.578Z,101308.81
2023-05-16T16:36:39.587Z,101307.66
2023-05-16T16:39:07.617Z,101310.38
2023-05-16T16:41:35.695Z,101305.84
2023-05-16T16:44:05.283Z,101303.31
2023-05-16T16:46:33.297Z,101310.53
2023-05-16T16:49:01.458Z,101317.69
2023-05-16T16:51:31.145Z,101314.72
2023-05-16T16:53:59.716Z,101331.88
2023-05-16T16:56:28.071Z,101330.91
2023-05-16T16:58:56.420Z,101326.72
2023-05-16T17:01:28.194Z,101333.31
2023-05-16T17:03:57.760Z,101339.81
2023-05-16T17:06:26.383Z,101340.19
2023-05-16T17:08:54.683Z,101354.91
2023-05-16T17:11:23.715Z,101339.16
2023-05-16T17:13:51.849Z,101347.50
2023-05-16T17:16:19.955Z,101347.56
2023-05-16T17:18:49.552Z,101346.56
2023-05-16T17:21:17.766Z,101350.47
2023-05-16T17:23:45.817Z,101346.94
2023-05-16T17:26:14.262Z,101352.25
2023-05-16T17:28:42.317Z,101357.59
2023-05-16T17:31:11.001Z,101370.19
2023-05-16T17:33:39.369Z,101365.56
2023-05-16T17:36:09.219Z,101372.72
2023-05-16T17:38:37.676Z,101376.34
2023-05-16T17:41:05.895Z,101370.06
2023-05-16T17:43:34.144Z,101372.56
2023-05-16T17:46:02.265Z,101372.47
2023-05-16T17:48:30.522Z,101367.94
2023-05-16T17:50:58.682Z,101365.31
2023-05-16T17:53:29.521Z,101360.78
2023-05-16T17:55:58.025Z,101366.81
2023-05-16T17:58:26.162Z,101358.22
2023-05-16T18:00:55.241Z,101359.88
2023-05-16T18:03:23.344Z,101367.13
2023-05-16T18:05:51.680Z,101351.09
2023-05-16T18:08:19.737Z,101364.34
2023-05-16T18:10:52.540Z,101358.97
2023-05-16T18:13:21.929Z,101364.31
2023-05-16T18:15:50.415Z,101370.50
2023-05-16T18:18:18.580Z,101373.91
2023-05-16T18:20:47.162Z,101373.81
2023-05-16T18:23:15.232Z,101378.19
2023-05-16T18:25:43.356Z,101380.88
2023-05-16T18:28:12.840Z,101375.59
2023-05-16T18:30:41.103Z,101381.88
2023-05-16T18:33:09.352Z,101391.81
2023-05-16T18:35:37.590Z,101385.63
2023-05-16T18:38:06.971Z,101387.50
2023-05-16T18:40:37.344Z,101399.91
2023-05-16T18:43:05.391Z,101402.66
2023-05-16T18:45:34.881Z,101406.06
2023-05-16T18:48:03.016Z,101407.94
2023-05-16T18:50:31.225Z,101409.75
2023-05-16T18:52:59.283Z,101406.31
2023-05-16T18:55:27.534Z,101407.22
2023-05-16T18:57:55.797Z,101405.66
2023-05-16T19:00:23.908Z,101402.16
2023-05-16T19:02:53.371Z,101417.28
2023-05-16T19:05:21.708Z,101413.78
2023-05-16T19:07:49.879Z,101413.91
2023-05-16T19:10:18.097Z,101417.38
2023-05-16T19:12:48.874Z,101415.59
2023-05-16T19:15:17.418Z,101429.81
2023-05-16T19:17:45.580Z,101421.75
2023-05-16T19:20:15.213Z,101434.06
2023-05-16T19:22:43.242Z,101434.94
2023-05-16T19:25:11.491Z,101439.28
2023-05-16T19:27:39.735Z,101438.28
2023-05-16T19:30:09.031Z,101436.50
2023-05-16T19:32:37.346Z,101444.44
2023-05-16T19:35:07.435Z,101448.00
2023-05-16T19:37:36.817Z,101455.00
2023-05-16T19:40:05.480Z,101454.91
2023-05-16T19:42:33.545Z,101461.09
2023-05-16T19:45:01.593Z,101457.50
2023-05-16T19:47:29.754Z,101463.66
2023-05-16T19:49:57.857Z,101455.53
2023-05-16T19:52:26.085Z,101458.09
2023-05-16T19:54:55.479Z,101456.41
2023-05-16T19:57:23.633Z,101457.22
2023-05-16T19:59:51.673Z,101457.19
2023-05-16T20:02:21.234Z,101456.53
2023-05-16T20:04:51.850Z,101463.66
2023-05-16T20:07:20.116Z,101461.00
2023-05-16T20:09:48.190Z,101461.78
2023-05-16T20:12:17.678Z,101461.75
2023-05-16T20:14:46.350Z,101466.44
2023-05-16T20:17:14.437Z,101459.22
2023-05-16T20:19:43.913Z,101458.22
2023-05-16T20:22:12.135Z,101468.91
2023-05-16T20:24:40.163Z,101463.56
2023-05-16T20:27:08.223Z,101460.16
2023-05-16T20:29:37.616Z,101462.75
2023-05-16T20:32:06.290Z,101454.75
2023-05-16T20:34:34.345Z,101455.72
2023-05-16T20:37:02.366Z,101453.13
2023-05-16T20:39:30.764Z,101460.16
2023-05-16T20:41:59.028Z,101457.53
2023-05-16T20:44:28.669Z,101467.31
2023-05-16T20:46:58.184Z,101463.66
2023-05-16T20:49:26.342Z,101459.34
2023-05-16T20:51:54.437Z,101453.13
2023-05-16T20:54:22.489Z,101463.75
2023-05-16T20:56:50.563Z,101457.53
2023-05-16T20:59:18.565Z,101458.41
2023-05-16T21:01:46.597Z,101460.22
2023-05-16T21:04:16.108Z,101465.56
2023-05-16T21:06:44.140Z,101457.56
2023-05-16T21:09:12.295Z,101456.66
2023-05-16T21:11:40.413Z,101459.34
2023-05-16T21:14:08.513Z,101456.69
2023-05-16T21:16:36.507Z,101459.22
2023-05-16T21:19:04.930Z,101453.09
2023-05-16T21:21:34.603Z,101461.94
2023-05-16T21:24:03.720Z,101447.78
2023-05-16T21:26:31.797Z,101454.00
2023-05-16T21:28:59.863Z,101450.41
2023-05-16T21:31:28.224Z,101453.84
2023-05-16T21:33:56.399Z,101451.22
2023-05-16T21:36:24.637Z,101448.69
2023-05-16T21:38:54.014Z,101453.00
2023-05-16T21:41:22.362Z,101455.69
2023-05-16T21:43:50.698Z,101453.84
2023-05-16T21:46:18.860Z,101460.91
2023-05-16T21:48:46.922Z,101459.19
2023-05-16T21:51:15.076Z,101452.94
2023-05-16T21:53:43.084Z,101449.56
2023-05-16T21:56:12.490Z,101450.47
2023-05-16T21:58:42.351Z,101447.78
2023-05-16T22:01:10.468Z,101445.13
2023-05-16T22:03:38.678Z,101440.84
2023-05-16T22:06:07.296Z,101444.41
2023-05-16T22:08:35.387Z,101449.75
2023-05-16T22:11:03.637Z,101449.75
2023-05-16T22:13:32.976Z,101453.38
2023-05-16T22:16:04.468Z,101453.28
2023-05-16T22:18:34.151Z,101452.50
2023-05-16T22:21:02.582Z,101449.00
2023-05-16T22:23:30.989Z,101459.69
2023-05-16T22:25:59.083Z,101455.16
2023-05-16T22:28:27.258Z,101454.34
2023-05-16T22:30:56.814Z,101459.69
2023-05-16T22:33:25.485Z,101455.22
2023-05-16T22:35:53.890Z,101446.44
2023-05-16T22:38:21.969Z,101441.22
2023-05-16T22:40:50.008Z,101437.53
2023-05-16T22:43:18.028Z,101443.78
2023-05-16T22:45:46.085Z,101453.63
2023-05-16T22:48:15.519Z,101458.03
2023-05-16T22:50:43.649Z,101466.06
2023-05-16T22:53:11.649Z,101474.06
2023-05-16T22:55:39.684Z,101463.69
2023-05-16T22:58:07.804Z,101462.88
2023-05-16T23:00:35.842Z,101471.75
2023-05-16T23:03:04.306Z,101463.81
2023-05-16T23:05:33.824Z,101463.88
2023-05-16T23:08:02.488Z,101470.03
2023-05-16T23:10:30.604Z,101464.69
2023-05-16T23:12:58.740Z,101470.00
2023-05-16T23:15:26.991Z,101468.22
2023-05-16T23:17:55.507Z,101465.56
2023-05-16T23:20:23.819Z,101466.56
2023-05-16T23:22:53.263Z,101475.38
2023-05-16T23:25:21.455Z,101482.56
2023-05-16T23:27:49.546Z,101483.53
2023-05-16T23:30:17.830Z,101481.84
2023-05-16T23:32:45.822Z,101489.00
2023-05-16T23:35:13.854Z,101495.25
2023-05-16T23:37:41.848Z,101499.72
2023-05-16T23:40:11.973Z,101502.41
2023-05-16T23:42:40.841Z,101495.38
2023-05-16T23:45:10.217Z,101497.25
2023-05-16T23:47:38.268Z,101510.59
2023-05-16T23:50:07.438Z,101508.88
2023-05-16T23:52:35.538Z,101513.34
2023-05-16T23:55:03.607Z,101516.09
2023-05-16T23:57:33.014Z,101515.25
